createdAt,value
2022-11-25T00:00:20.927Z,34.17
2022-11-25T00:05:22.312Z,34.13
2022-11-25T00:10:23.685Z,33.92
2022-11-25T00:15:25.064Z,34.15
2022-11-25T00:20:26.437Z,34.33
2022-11-25T00:25:27.835Z,34.01
2022-11-25T00:30:29.361Z,34.11
2022-11-25T00:35:30.729Z,34.21
2022-11-25T00:40:32.100Z,34.13
2022-11-25T00:45:33.569Z,34.11
2022-11-25T00:50:35.083Z,34.20
2022-11-25T00:55:56.475Z,34.17
2022-11-25T01:01:01.763Z,34.14
2022-11-25T01:06:04.231Z,34.18
2022-11-25T01:11:07.931Z,34.08
2022-11-25T01:16:11.746Z,34.09
2022-11-25T01:21:17.463Z,33.93
2022-11-25T01:26:20.444Z,34.09
2022-11-25T01:31:22.560Z,34.22
2022-11-25T01:36:23.980Z,34.06
2022-11-25T01:41:29.514Z,33.99
2022-11-25T01:46:35.283Z,34.31
2022-11-25T01:51:50.856Z,34.10
2022-11-25T01:56:56.135Z,33.85
2022-11-25T02:01:57.517Z,34.17
2022-11-25T02:07:02.011Z,34.07
2022-11-25T02:12:03.481Z,34.04
2022-11-25T02:17:04.866Z,33.97
2022-11-25T02:22:06.720Z,34.02
2022-11-25T02:27:08.103Z,33.89
2022-11-25T02:32:09.495Z,33.95
2022-11-25T02:37:10.911Z,34.10
2022-11-25T02:42:12.286Z,33.96
2022-11-25T02:47:13.659Z,33.97
2022-11-25T02:52:15.144Z,33.87
2022-11-25T02:57:16.536Z,33.94
2022-11-25T03:02:17.983Z,34.11
2022-11-25T03:07:19.430Z,34.17
2022-11-25T03:12:21.011Z,34.08
2022-11-25T03:17:22.404Z,34.20
2022-11-25T03:22:23.779Z,34.16
2022-11-25T03:27:27.994Z,34.43
2022-11-25T03:32:31.699Z,34.20
2022-11-25T03:37:33.063Z,34.03
2022-11-25T03:42:34.455Z,34.13
2022-11-25T03:47:35.827Z,34.06
2022-11-25T03:52:37.232Z,34.00
2022-11-25T03:57:38.620Z,33.90
2022-11-25T04:02:40.042Z,33.97
2022-11-25T04:07:41.500Z,33.91
2022-11-25T04:12:49.057Z,33.93
2022-11-25T04:17:50.434Z,33.75
2022-11-25T04:22:51.803Z,33.81
2022-11-25T04:27:53.194Z,34.00
2022-11-25T04:32:54.575Z,33.76
2022-11-25T04:37:55.932Z,33.87
2022-11-25T04:43:03.461Z,33.85
2022-11-25T04:48:07.534Z,34.00
2022-11-25T04:53:08.935Z,33.87
2022-11-25T04:58:11.161Z,34.02
2022-11-25T05:03:12.520Z,33.93
2022-11-25T05:08:13.880Z,33.90
2022-11-25T05:13:15.250Z,33.84
2022-11-25T05:18:16.640Z,33.71
2022-11-25T05:23:18.013Z,33.73
2022-11-25T05:28:19.371Z,33.76
2022-11-25T05:33:20.904Z,33.87
2022-11-25T05:38:22.268Z,33.86
2022-11-25T05:43:23.630Z,33.83
2022-11-25T05:48:25.196Z,33.96
2022-11-25T05:53:26.736Z,33.66
2022-11-25T05:58:28.615Z,33.60
2022-11-25T06:03:30.198Z,33.42
2022-11-25T06:08:31.600Z,33.63
2022-11-25T06:13:34.155Z,33.52
2022-11-25T06:18:36.395Z,33.54
2022-11-25T06:23:37.969Z,32.99
2022-11-25T06:28:39.383Z,32.89
2022-11-25T06:33:40.924Z,33.03
2022-11-25T06:38:45.755Z,32.92
2022-11-25T06:43:47.116Z,32.92
2022-11-25T06:48:48.500Z,32.45
2022-11-25T06:53:49.895Z,32.57
2022-11-25T06:58:51.686Z,32.81
2022-11-25T07:03:58.775Z,32.57
2022-11-25T07:09:00.187Z,32.39
2022-11-25T07:14:03.026Z,32.24
2022-11-25T07:19:04.392Z,31.89
2022-11-25T07:24:06.889Z,31.77
2022-11-25T07:29:29.318Z,32.05
2022-11-25T07:34:31.749Z,31.67
2022-11-25T07:39:33.140Z,31.37
2022-11-25T07:44:34.545Z,31.12
2022-11-25T07:49:36.146Z,31.34
2022-11-25T07:54:37.765Z,31.23
2022-11-25T07:59:41.210Z,31.08
2022-11-25T08:04:42.575Z,31.05
2022-11-25T08:09:43.951Z,31.40
2022-11-25T08:14:48.353Z,31.59
2022-11-25T08:19:49.835Z,31.47
2022-11-25T08:24:51.204Z,31.53
2022-11-25T08:29:52.567Z,31.52
2022-11-25T08:34:53.931Z,31.25
2022-11-25T08:39:56.026Z,31.26
2022-11-25T08:44:57.707Z,31.50
2022-11-25T08:49:59.063Z,31.38
2022-11-25T08:55:01.001Z,31.20
2022-11-25T09:00:03.493Z,31.37
2022-11-25T09:05:05.120Z,31.29
2022-11-25T09:10:08.324Z,31.04
2022-11-25T09:15:10.416Z,30.91
2022-11-25T09:20:12.114Z,31.35
2022-11-25T09:25:13.495Z,31.10
2022-11-25T09:30:14.998Z,31.21
2022-11-25T09:35:16.839Z,30.91
2022-11-25T09:40:35.212Z,30.81
2022-11-25T09:46:15.285Z,30.86
2022-11-25T09:51:24.838Z,31.07
2022-11-25T09:56:33.568Z,31.37
2022-11-25T10:01:38.567Z,31.28
2022-11-25T10:06:55.490Z,31.21
2022-11-25T10:12:00.446Z,31.47
2022-11-25T10:17:20.487Z,31.47
2022-11-25T10:22:26.675Z,31.45
2022-11-25T10:27:46.067Z,31.61
2022-11-25T10:33:11.597Z,31.55
2022-11-25T10:38:18.934Z,31.73
2022-11-25T10:43:20.807Z,31.66
2022-11-25T10:48:40.000Z,31.70
2022-11-25T10:54:10.677Z,31.86
2022-11-25T10:59:23.138Z,31.76
2022-11-25T11:04:24.520Z,31.87
2022-11-25T11:09:35.715Z,31.73
2022-11-25T11:14:37.397Z,31.87
2022-11-25T11:19:38.955Z,31.89
2022-11-25T11:24:42.357Z,32.15
2022-11-25T11:29:43.722Z,32.19
2022-11-25T11:34:50.745Z,32.27
2022-11-25T11:40:38.427Z,32.39
2022-11-25T11:45:49.030Z,32.38
2022-11-25T11:50:51.072Z,32.56
2022-11-25T11:56:35.940Z,32.58
2022-11-25T12:02:00.361Z,32.48
2022-11-25T12:07:06.161Z,32.63
2022-11-25T12:12:09.271Z,32.67
2022-11-25T12:17:17.788Z,32.18
2022-11-25T12:22:23.555Z,32.37
2022-11-25T12:27:34.961Z,32.64
2022-11-25T12:32:59.897Z,32.29
2022-11-25T12:38:04.208Z,32.22
2022-11-25T12:43:28.664Z,32.35
2022-11-25T12:48:30.043Z,32.14
2022-11-25T12:53:35.633Z,32.30
2022-11-25T12:58:53.330Z,32.40
2022-11-25T13:04:23.343Z,32.26
2022-11-25T13:09:46.556Z,32.37
2022-11-25T13:15:19.240Z,32.40
2022-11-25T13:20:23.746Z,32.55
2022-11-25T13:25:25.788Z,32.56
2022-11-25T13:30:33.324Z,32.71
2022-11-25T13:35:35.572Z,32.70
2022-11-25T13:40:38.392Z,32.63
2022-11-25T13:45:42.878Z,32.54
2022-11-25T13:51:11.941Z,32.81
2022-11-25T13:56:21.929Z,32.64
2022-11-25T14:01:29.510Z,33.03
2022-11-25T14:06:39.929Z,33.11
2022-11-25T14:11:59.855Z,33.13
2022-11-25T14:17:04.526Z,33.41
2022-11-25T14:22:32.859Z,33.43
2022-11-25T14:27:34.288Z,33.45
2022-11-25T14:32:57.513Z,33.56
2022-11-25T14:38:12.764Z,33.48
2022-11-25T14:43:22.552Z,33.65
2022-11-25T14:48:25.841Z,33.79
2022-11-25T14:53:27.812Z,33.68
2022-11-25T14:58:29.283Z,33.76
2022-11-25T15:03:30.728Z,33.49
2022-11-25T15:08:58.157Z,33.70
2022-11-25T15:14:01.823Z,33.78
2022-11-25T15:19:04.811Z,33.52
2022-11-25T15:24:06.423Z,33.77
2022-11-25T15:29:12.002Z,33.49
2022-11-25T15:34:13.989Z,33.64
2022-11-25T15:39:21.680Z,33.54
2022-11-25T15:44:27.572Z,33.59
2022-11-25T15:49:29.942Z,33.60
2022-11-25T15:54:32.969Z,33.69
2022-11-25T15:59:55.434Z,33.76
2022-11-25T16:05:16.489Z,33.54
2022-11-25T16:10:56.402Z,33.55
2022-11-25T16:16:01.782Z,33.60
2022-11-25T16:21:05.035Z,33.56
2022-11-25T16:26:12.315Z,33.42
2022-11-25T16:31:15.495Z,33.61
2022-11-25T16:36:16.943Z,33.38
2022-11-25T16:41:24.189Z,33.56
2022-11-25T16:46:25.760Z,33.37
2022-11-25T16:51:27.294Z,33.65
2022-11-25T16:56:28.663Z,33.66
2022-11-25T17:01:30.154Z,33.60
2022-11-25T17:06:31.715Z,33.73
2022-11-25T17:11:35.363Z,33.73
2022-11-25T17:16:36.754Z,33.68
2022-11-25T17:21:38.152Z,33.71
2022-11-25T17:26:40.281Z,33.67
2022-11-25T17:31:41.723Z,33.74
2022-11-25T17:36:43.688Z,33.56
2022-11-25T17:41:46.288Z,33.83
2022-11-25T17:46:47.673Z,33.74
2022-11-25T17:51:49.096Z,33.97
2022-11-25T17:56:52.582Z,33.90
2022-11-25T18:01:55.899Z,33.88
2022-11-25T18:06:57.541Z,33.65
2022-11-25T18:11:59.523Z,33.73
2022-11-25T18:17:02.021Z,33.54
2022-11-25T18:22:17.958Z,33.89
2022-11-25T18:27:20.801Z,33.74
2022-11-25T18:32:23.321Z,33.92
2022-11-25T18:37:25.123Z,33.53
2022-11-25T18:42:26.941Z,33.57
2022-11-25T18:47:28.360Z,33.67
2022-11-25T18:52:29.762Z,33.55
2022-11-25T18:57:31.139Z,33.61
2022-11-25T19:02:32.600Z,33.87
2022-11-25T19:07:34.074Z,33.91
2022-11-25T19:12:35.524Z,33.70
2022-11-25T19:17:37.031Z,33.90
2022-11-25T19:22:38.402Z,33.93
2022-11-25T19:27:42.554Z,33.84
2022-11-25T19:32:44.897Z,33.96
2022-11-25T19:37:46.271Z,33.94
2022-11-25T19:42:48.451Z,33.94
2022-11-25T19:47:50.413Z,33.95
2022-11-25T19:52:51.844Z,33.87
2022-11-25T19:57:54.361Z,33.96
2022-11-25T20:02:56.148Z,34.04
2022-11-25T20:07:57.615Z,34.02
2022-11-25T20:12:59.132Z,34.20
2022-11-25T20:18:00.634Z,34.22
2022-11-25T20:23:16.559Z,34.06
2022-11-25T20:28:19.657Z,34.38
2022-11-25T20:33:24.252Z,34.55
2022-11-25T20:38:27.548Z,34.50
2022-11-25T20:43:33.310Z,34.56
2022-11-25T20:48:37.276Z,34.55
2022-11-25T20:53:38.684Z,34.75
2022-11-25T20:58:40.063Z,34.54
2022-11-25T21:03:42.497Z,35.08
2022-11-25T21:08:45.244Z,35.00
2022-11-25T21:13:46.817Z,35.00
2022-11-25T21:18:48.207Z,35.04
2022-11-25T21:23:49.632Z,34.76
2022-11-25T21:28:51.844Z,35.07
2022-11-25T21:33:55.939Z,34.95
2022-11-25T21:39:02.055Z,35.38
2022-11-25T21:44:04.339Z,35.10
2022-11-25T21:49:10.492Z,34.94
2022-11-25T21:54:11.868Z,35.31
2022-11-25T21:59:17.236Z,35.21
2022-11-25T22:04:20.360Z,35.39
2022-11-25T22:09:22.084Z,35.40
2022-11-25T22:14:29.559Z,35.31
2022-11-25T22:19:30.928Z,35.54
2022-11-25T22:24:32.312Z,35.68
2022-11-25T22:29:34.495Z,35.47
2022-11-25T22:34:36.125Z,35.55
2022-11-25T22:39:37.716Z,35.58
2022-11-25T22:44:46.639Z,35.64
2022-11-25T22:49:48.231Z,35.49
2022-11-25T22:54:49.805Z,35.69
2022-11-25T22:59:51.182Z,35.70
2022-11-25T23:04:53.520Z,35.85
2022-11-25T23:09:56.482Z,35.57
2022-11-25T23:14:57.907Z,36.03
2022-11-25T23:19:59.267Z,35.88
2022-11-25T23:25:00.647Z,35.74
2022-11-25T23:30:02.040Z,35.84
2022-11-25T23:35:03.488Z,35.98
2022-11-25T23:40:05.332Z,35.71
2022-11-25T23:45:07.411Z,35.74
2022-11-25T23:50:23.778Z,35.77
2022-11-25T23:55:27.476Z,36.05
